createdAt,value
2022-08-08T00:00:55.312Z,2.20
2022-08-08T00:02:56.871Z,2.17
2022-08-08T00:06:04.561Z,2.10
2022-08-08T00:09:12.196Z,2.25
2022-08-08T00:12:26.726Z,1.90
2022-08-08T00:15:56.978Z,2.10
2022-08-08T00:19:00.545Z,2.40
2022-08-08T00:22:06.962Z,2.25
2022-08-08T00:25:14.636Z,2.08
2022-08-08T00:28:35.401Z,2.67
2022-08-08T00:32:20.974Z,2.22
2022-08-08T00:35:22.019Z,2.80
2022-08-08T00:38:44.468Z,2.40
2022-08-08T00:42:08.958Z,2.60
2022-08-08T00:45:36.336Z,2.55
2022-08-08T00:49:00.830Z,2.63
2022-08-08T00:52:08.295Z,2.30
2022-08-08T00:55:53.093Z,2.78
2022-08-08T00:59:12.929Z,2.63
2022-08-08T01:03:59.198Z,2.60
2022-08-08T01:06:27.225Z,3.08
2022-08-08T01:10:01.573Z,2.60
2022-08-08T01:13:43.934Z,2.53
2022-08-08T01:17:04.907Z,2.85
2022-08-08T01:20:29.511Z,2.50
2022-08-08T01:24:05.679Z,3.03
2022-08-08T01:27:32.982Z,2.60
2022-08-08T01:32:05.177Z,2.80
2022-08-08T01:34:58.785Z,2.63
2022-08-08T01:38:15.223Z,2.80
2022-08-08T01:41:27.713Z,3.10
2022-08-08T01:44:57.020Z,3.10
2022-08-08T01:48:16.743Z,2.88
2022-08-08T01:52:42.795Z,3.33
2022-08-08T01:55:44.892Z,2.67
2022-08-08T01:58:48.722Z,3.17
2022-08-08T02:02:05.225Z,3.25
2022-08-08T02:05:33.784Z,2.83
2022-08-08T02:08:58.897Z,3.13
2022-08-08T02:12:12.589Z,3.08
2022-08-08T02:15:21.970Z,3.10
2022-08-08T02:18:34.102Z,3.55
2022-08-08T02:22:03.696Z,3.72
2022-08-08T02:25:15.116Z,3.35
2022-08-08T02:28:35.393Z,3.40
2022-08-08T02:32:00.925Z,3.78
2022-08-08T02:35:17.541Z,3.72
2022-08-08T02:38:43.168Z,3.45
2022-08-08T02:42:05.796Z,4.25
2022-08-08T02:45:18.505Z,4.20
2022-08-08T02:48:34.338Z,4.07
2022-08-08T02:51:58.658Z,4.10
2022-08-08T02:55:20.548Z,4.22
2022-08-08T02:58:40.867Z,4.30
2022-08-08T03:02:03.572Z,4.15
2022-08-08T03:05:45.191Z,4.57
2022-08-08T03:09:20.528Z,4.35
2022-08-08T03:12:36.259Z,4.03
2022-08-08T03:16:09.625Z,4.10
2022-08-08T03:19:39.933Z,4.55
2022-08-08T03:23:00.641Z,5.07
2022-08-08T03:26:08.507Z,4.63
2022-08-08T03:29:16.886Z,5.65
2022-08-08T03:32:41.378Z,5.00
2022-08-08T03:35:45.432Z,7.43
2022-08-08T03:39:07.369Z,5.95
2022-08-08T03:42:38.507Z,5.68
2022-08-08T03:46:06.251Z,4.72
2022-08-08T03:49:30.150Z,4.93
2022-08-08T03:52:26.812Z,5.50
2022-08-08T03:55:55.957Z,5.80
2022-08-08T03:58:56.755Z,10.82
2022-08-08T04:02:32.735Z,5.78
2022-08-08T04:05:28.548Z,5.90
2022-08-08T04:08:37.077Z,5.72
2022-08-08T04:11:59.170Z,6.43
2022-08-08T04:15:22.267Z,6.00
2022-08-08T04:18:26.021Z,6.25
2022-08-08T04:21:28.836Z,5.97
2022-08-08T04:24:42.318Z,6.18
2022-08-08T04:28:02.256Z,7.13
2022-08-08T04:31:56.886Z,6.50
2022-08-08T04:34:55.353Z,6.38
2022-08-08T04:38:04.012Z,6.22
2022-08-08T04:41:17.895Z,7.13
2022-08-08T04:44:26.718Z,7.07
2022-08-08T04:47:30.768Z,7.15
2022-08-08T04:54:26.838Z,7.45
2022-08-08T04:57:05.341Z,6.90
2022-08-08T05:00:11.211Z,6.32
2022-08-08T05:03:19.160Z,6.10
2022-08-08T05:06:39.812Z,6.55
2022-08-08T05:09:44.056Z,6.82
2022-08-08T05:12:59.848Z,6.47
2022-08-08T05:16:52.053Z,6.78
2022-08-08T05:20:09.731Z,6.45
2022-08-08T05:23:06.228Z,6.95
2022-08-08T05:26:09.644Z,6.50
2022-08-08T05:29:17.288Z,6.78
2022-08-08T05:32:24.819Z,6.13
2022-08-08T05:35:32.503Z,7.28
2022-08-08T05:38:37.688Z,6.55
2022-08-08T05:41:54.796Z,6.75
2022-08-08T05:45:24.596Z,7.50
2022-08-08T05:48:28.905Z,6.87
2022-08-08T05:51:48.480Z,7.18
2022-08-08T05:55:02.085Z,7.68
2022-08-08T05:58:17.796Z,7.97
2022-08-08T06:01:57.487Z,6.95
2022-08-08T06:04:54.866Z,6.72
2022-08-08T06:08:02.438Z,7.05
2022-08-08T06:11:06.514Z,7.07
2022-08-08T06:14:12.834Z,7.45
2022-08-08T06:17:50.258Z,7.22
2022-08-08T06:20:50.249Z,6.82
2022-08-08T06:24:04.888Z,7.10
2022-08-08T06:27:11.025Z,6.65
2022-08-08T06:30:28.307Z,7.95
2022-08-08T06:34:25.742Z,7.28
2022-08-08T06:37:10.136Z,7.03
2022-08-08T06:40:27.264Z,6.82
2022-08-08T06:43:34.442Z,8.38
2022-08-08T06:46:57.716Z,7.20
2022-08-08T06:50:04.080Z,6.83
2022-08-08T06:53:17.276Z,7.43
2022-08-08T06:56:29.308Z,6.57
2022-08-08T07:00:10.818Z,6.50
2022-08-08T07:03:01.233Z,7.13
2022-08-08T07:06:10.511Z,6.13
2022-08-08T07:09:21.118Z,6.13
2022-08-08T07:12:30.472Z,7.30
2022-08-08T07:16:03.814Z,6.25
2022-08-08T07:19:07.796Z,5.30
2022-08-08T07:22:19.438Z,6.30
2022-08-08T07:25:32.194Z,6.78
2022-08-08T07:28:37.559Z,6.15
2022-08-08T07:31:44.076Z,5.45
2022-08-08T07:35:01.336Z,5.80
2022-08-08T07:38:18.490Z,6.75
2022-08-08T07:42:03.898Z,5.63
2022-08-08T07:45:01.954Z,5.00
2022-08-08T07:48:06.201Z,5.40
2022-08-08T07:51:23.785Z,4.97
2022-08-08T07:54:40.974Z,4.63
2022-08-08T07:57:49.042Z,5.60
2022-08-08T08:01:00.046Z,5.55
2022-08-08T08:04:04.416Z,6.90
2022-08-08T08:07:10.871Z,4.65
2022-08-08T08:10:18.045Z,4.00
2022-08-08T08:13:42.898Z,3.58
2022-08-08T08:17:00.978Z,4.45
2022-08-08T08:20:05.614Z,5.30
2022-08-08T08:23:13.339Z,3.53
2022-08-08T08:26:27.555Z,3.45
2022-08-08T08:29:33.569Z,3.40
2022-08-08T08:32:49.271Z,4.75
2022-08-08T08:36:18.703Z,3.80
2022-08-08T08:39:23.138Z,4.13
2022-08-08T08:42:31.758Z,3.80
2022-08-08T08:45:42.224Z,3.47
2022-08-08T08:48:49.654Z,3.00
2022-08-08T08:51:53.968Z,3.00
2022-08-08T08:55:01.698Z,4.13
2022-08-08T08:58:05.497Z,3.53
2022-08-08T09:01:13.444Z,3.30
2022-08-08T09:04:30.871Z,3.65
2022-08-08T09:07:39.489Z,3.10
2022-08-08T09:10:56.357Z,5.57
2022-08-08T09:14:01.794Z,3.17
2022-08-08T09:17:12.869Z,2.30
2022-08-08T09:21:59.698Z,3.40
2022-08-08T09:23:43.872Z,3.10
2022-08-08T09:26:53.724Z,3.58
2022-08-08T09:30:02.039Z,2.80
2022-08-08T09:33:54.196Z,3.20
2022-08-08T09:36:36.120Z,4.50
2022-08-08T09:39:43.023Z,3.20
2022-08-08T09:42:51.832Z,4.93
2022-08-08T09:46:03.281Z,3.42
2022-08-08T09:49:41.582Z,3.15
2022-08-08T09:52:56.827Z,2.55
2022-08-08T09:56:05.692Z,2.58
2022-08-08T09:59:42.681Z,3.10
2022-08-08T10:02:36.444Z,2.50
2022-08-08T10:05:41.939Z,2.50
2022-08-08T10:08:50.038Z,2.55
2022-08-08T10:12:27.250Z,2.70
2022-08-08T10:15:17.336Z,2.83
2022-08-08T10:18:27.696Z,2.60
2022-08-08T10:21:34.282Z,2.53
2022-08-08T10:24:46.982Z,2.70
2022-08-08T10:27:52.134Z,2.60
2022-08-08T10:31:01.888Z,2.50
2022-08-08T10:34:20.177Z,2.50
2022-08-08T10:37:27.682Z,2.33
2022-08-08T10:40:33.319Z,2.30
2022-08-08T10:43:40.193Z,1.90
2022-08-08T10:46:46.203Z,2.25
2022-08-08T10:50:02.220Z,2.50
2022-08-08T10:53:12.593Z,2.20
2022-08-08T10:56:26.997Z,2.58
2022-08-08T10:59:40.768Z,2.22
2022-08-08T11:02:43.512Z,2.30
2022-08-08T11:05:51.812Z,3.10
2022-08-08T11:09:15.584Z,2.42
2022-08-08T11:12:24.375Z,2.72
2022-08-08T11:15:31.352Z,2.40
2022-08-08T11:18:35.094Z,2.75
2022-08-08T11:21:41.257Z,2.28
2022-08-08T11:24:46.912Z,3.08
2022-08-08T11:27:50.972Z,2.20
2022-08-08T11:30:54.119Z,2.15
2022-08-08T11:37:15.046Z,2.60
2022-08-08T11:40:22.509Z,2.33
2022-08-08T11:43:39.405Z,2.70
2022-08-08T11:46:44.634Z,3.05
2022-08-08T11:49:50.265Z,2.22
2022-08-08T11:52:54.412Z,2.42
2022-08-08T11:56:08.588Z,2.40
2022-08-08T11:59:13.238Z,2.10
2022-08-08T12:02:31.772Z,2.42
2022-08-08T12:05:36.909Z,1.90
2022-08-08T12:08:40.097Z,2.40
2022-08-08T12:11:45.873Z,2.20
2022-08-08T12:14:59.932Z,1.92
2022-08-08T12:18:13.454Z,2.10
2022-08-08T12:21:25.903Z,2.28
2022-08-08T12:24:51.495Z,2.30
2022-08-08T12:28:15.495Z,2.30
2022-08-08T12:31:18.695Z,2.30
2022-08-08T12:34:36.348Z,2.50
2022-08-08T12:37:41.048Z,2.42
2022-08-08T12:40:56.277Z,2.00
2022-08-08T12:44:06.692Z,2.10
2022-08-08T12:47:12.954Z,2.15
2022-08-08T12:50:15.772Z,2.10
2022-08-08T12:53:21.169Z,2.10
2022-08-08T12:56:34.006Z,1.85
2022-08-08T13:00:03.412Z,2.20
2022-08-08T13:03:09.011Z,2.40
2022-08-08T13:06:14.948Z,2.00
2022-08-08T13:09:18.620Z,2.60
2022-08-08T13:12:37.184Z,1.95
2022-08-08T13:15:45.707Z,2.30
2022-08-08T13:19:02.585Z,2.47
2022-08-08T13:22:16.177Z,2.15
2022-08-08T13:25:22.110Z,2.05
2022-08-08T13:28:29.128Z,2.00
2022-08-08T13:31:36.811Z,2.03
2022-08-08T13:34:42.692Z,2.38
2022-08-08T13:41:16.457Z,1.90
2022-08-08T13:44:19.869Z,2.28
2022-08-08T13:47:23.829Z,2.57
2022-08-08T13:50:34.979Z,2.00
2022-08-08T13:53:53.248Z,2.33
2022-08-08T13:57:00.975Z,1.90
2022-08-08T14:00:08.999Z,2.22
2022-08-08T14:03:52.461Z,2.20
2022-08-08T14:06:48.488Z,2.25
2022-08-08T14:10:11.966Z,2.30
2022-08-08T14:13:31.100Z,2.03
2022-08-08T14:16:36.684Z,2.03
2022-08-08T14:19:57.275Z,2.15
2022-08-08T14:23:10.162Z,2.13
2022-08-08T14:26:20.905Z,1.98
2022-08-08T14:29:30.538Z,1.90
2022-08-08T14:32:33.576Z,2.45
2022-08-08T14:35:38.987Z,1.85
2022-08-08T14:38:51.853Z,2.10
2022-08-08T14:45:00.359Z,1.80
2022-08-08T14:48:04.127Z,1.95
2022-08-08T14:51:08.301Z,2.15
2022-08-08T14:54:29.051Z,1.53
2022-08-08T14:58:03.093Z,1.85
2022-08-08T15:00:55.316Z,2.17
2022-08-08T15:04:08.777Z,2.28
2022-08-08T15:07:22.579Z,2.13
2022-08-08T15:10:28.973Z,2.05
2022-08-08T15:13:39.934Z,2.20
2022-08-08T15:16:49.832Z,2.15
2022-08-08T15:20:01.259Z,1.85
2022-08-08T15:23:05.818Z,2.20
2022-08-08T15:26:13.098Z,2.20
2022-08-08T15:29:16.157Z,1.90
2022-08-08T15:32:20.574Z,1.75
2022-08-08T15:35:37.469Z,2.10
2022-08-08T15:38:50.323Z,1.90
2022-08-08T15:41:53.217Z,2.38
2022-08-08T15:44:56.872Z,1.90
2022-08-08T15:48:05.519Z,1.80
2022-08-08T15:51:18.245Z,2.20
2022-08-08T15:54:38.077Z,1.77
2022-08-08T15:57:42.768Z,1.95
2022-08-08T16:00:47.350Z,2.00
2022-08-08T16:03:53.380Z,1.95
2022-08-08T16:06:56.172Z,1.70
2022-08-08T16:13:07.773Z,2.05
2022-08-08T16:13:30.634Z,2.65
2022-08-08T16:16:38.670Z,2.35
2022-08-08T16:19:57.214Z,2.13
2022-08-08T16:23:03.713Z,2.10
2022-08-08T16:26:12.952Z,1.85
2022-08-08T16:29:23.807Z,2.28
2022-08-08T16:32:40.502Z,2.55
2022-08-08T16:35:43.682Z,2.15
2022-08-08T16:38:54.040Z,1.95
2022-08-08T16:42:00.948Z,3.28
2022-08-08T16:45:11.344Z,2.38
2022-08-08T16:48:27.190Z,2.20
2022-08-08T16:55:05.352Z,2.28
2022-08-08T16:58:25.571Z,2.20
2022-08-08T17:01:31.005Z,1.80
2022-08-08T17:04:43.357Z,2.30
2022-08-08T17:10:58.676Z,2.35
2022-08-08T17:14:18.651Z,2.22
2022-08-08T17:17:41.762Z,2.13
2022-08-08T17:20:45.113Z,2.20
2022-08-08T17:23:58.447Z,2.78
2022-08-08T17:27:05.114Z,2.20
2022-08-08T17:30:23.367Z,7.95
2022-08-08T17:34:54.461Z,2.45
2022-08-08T17:37:02.714Z,1.85
2022-08-08T17:40:13.109Z,2.30
2022-08-08T17:43:17.776Z,2.22
2022-08-08T17:46:41.750Z,3.35
2022-08-08T17:49:45.350Z,2.08
2022-08-08T17:52:52.743Z,2.20
2022-08-08T17:56:05.563Z,3.10
2022-08-08T17:59:10.664Z,2.30
2022-08-08T18:02:16.442Z,2.30
2022-08-08T18:05:24.232Z,1.73
2022-08-08T18:08:40.878Z,2.42
2022-08-08T18:11:44.861Z,2.30
2022-08-08T18:14:53.810Z,2.28
2022-08-08T18:18:09.932Z,2.13
2022-08-08T18:21:35.630Z,2.40
2022-08-08T18:24:43.717Z,2.20
2022-08-08T18:27:51.334Z,1.92
2022-08-08T18:30:54.045Z,2.10
2022-08-08T18:34:11.125Z,1.90
2022-08-08T18:37:34.255Z,1.90
2022-08-08T18:40:37.587Z,2.00
2022-08-08T18:43:42.941Z,1.90
2022-08-08T18:46:55.151Z,1.83
2022-08-08T18:50:02.864Z,1.73
2022-08-08T18:53:05.847Z,1.95
2022-08-08T18:56:20.004Z,1.90
2022-08-08T18:59:23.250Z,1.83
2022-08-08T19:02:29.434Z,2.20
2022-08-08T19:05:38.536Z,1.90
2022-08-08T19:08:48.371Z,1.90
2022-08-08T19:11:51.544Z,2.00
2022-08-08T19:14:57.290Z,1.70
2022-08-08T19:18:32.046Z,1.90
2022-08-08T19:21:30.849Z,1.88
2022-08-08T19:24:42.929Z,2.33
2022-08-08T19:27:59.937Z,11.73
2022-08-08T19:31:07.385Z,2.60
2022-08-08T19:34:29.567Z,1.90
2022-08-08T19:37:43.322Z,2.47
2022-08-08T19:40:55.695Z,2.60
2022-08-08T19:44:03.832Z,2.63
2022-08-08T19:47:15.967Z,2.05
2022-08-08T19:50:18.589Z,2.10
2022-08-08T19:53:50.756Z,1.70
2022-08-08T19:56:49.049Z,3.70
2022-08-08T19:59:51.941Z,5.00
2022-08-08T20:02:55.143Z,2.55
2022-08-08T20:06:14.704Z,2.30
2022-08-08T20:09:23.487Z,1.83
2022-08-08T20:12:32.911Z,1.77
2022-08-08T20:16:00.467Z,1.85
2022-08-08T20:19:06.506Z,2.20
2022-08-08T20:22:13.235Z,1.63
2022-08-08T20:25:34.561Z,2.28
2022-08-08T20:28:45.610Z,2.00
2022-08-08T20:32:07.603Z,3.97
2022-08-08T20:35:16.208Z,12.43
2022-08-08T20:38:31.937Z,3.47
2022-08-08T20:41:36.532Z,1.73
2022-08-08T20:44:43.777Z,1.55
2022-08-08T20:47:48.559Z,1.52
2022-08-08T20:51:00.675Z,1.60
2022-08-08T20:54:14.362Z,1.80
2022-08-08T20:57:27.975Z,1.67
2022-08-08T21:03:33.344Z,1.70
2022-08-08T21:06:56.512Z,1.35
2022-08-08T21:10:08.253Z,1.67
2022-08-08T21:13:17.185Z,1.60
2022-08-08T21:16:27.047Z,1.70
2022-08-08T21:19:44.292Z,1.75
2022-08-08T21:22:49.925Z,2.08
2022-08-08T21:25:54.821Z,1.92
2022-08-08T21:29:00.928Z,1.52
2022-08-08T21:32:07.651Z,1.50
2022-08-08T21:36:16.798Z,2.97
2022-08-08T21:38:39.989Z,1.98
2022-08-08T21:41:53.899Z,3.42
2022-08-08T21:45:44.099Z,4.28
2022-08-08T21:48:35.471Z,2.20
2022-08-08T21:54:18.378Z,1.70
2022-08-08T21:56:06.606Z,2.08
2022-08-08T21:58:37.559Z,1.92
2022-08-08T22:01:42.529Z,1.80
2022-08-08T22:04:45.440Z,1.92
2022-08-08T22:07:49.025Z,1.80
2022-08-08T22:10:53.984Z,1.73
2022-08-08T22:13:57.169Z,1.90
2022-08-08T22:17:02.665Z,1.80
2022-08-08T22:20:12.322Z,1.60
2022-08-08T22:23:21.906Z,2.75
2022-08-08T22:26:32.866Z,3.03
2022-08-08T22:29:59.223Z,5.80
2022-08-08T22:32:59.542Z,4.13
2022-08-08T22:36:05.360Z,1.90
2022-08-08T22:39:19.750Z,1.80
2022-08-08T22:42:27.569Z,1.75
2022-08-08T22:45:34.986Z,2.10
2022-08-08T22:48:39.175Z,1.60
2022-08-08T22:51:46.677Z,2.03
2022-08-08T22:54:56.280Z,1.80
2022-08-08T22:58:07.200Z,1.65
2022-08-08T23:02:00.818Z,1.85
2022-08-08T23:04:35.008Z,1.35
2022-08-08T23:07:51.140Z,1.92
2022-08-08T23:11:06.451Z,1.80
2022-08-08T23:14:16.254Z,1.73
2022-08-08T23:17:18.907Z,2.03
2022-08-08T23:20:27.477Z,2.03
2022-08-08T23:23:31.444Z,2.22
2022-08-08T23:26:34.541Z,2.10
2022-08-08T23:29:37.784Z,1.85
2022-08-08T23:32:41.778Z,2.22
2022-08-08T23:35:58.837Z,2.15
2022-08-08T23:39:10.473Z,1.80
2022-08-08T23:42:13.281Z,2.00
2022-08-08T23:45:15.854Z,2.50
2022-08-08T23:49:01.450Z,1.92
2022-08-08T23:52:04.610Z,1.80
2022-08-08T23:55:14.745Z,2.50
2022-08-08T23:58:37.773Z,1.95
